Time,TemperatureF,DewpointF,PressureIn,WindDirection,WindDirectionDegrees,WindSpeedMPH,WindSpeedGustMPH,Humidity,HourlyPrecipIn,Conditions,Clouds,dailyrainin,SoftwareType,DateUTC
2013-08-05 00:02:00,68.0,58.0,-100.00,SSE,155,6.0,9.0,70,0.00,,,-99.99,,2013-08-05 05:02:00,
2013-08-05 00:12:00,68.0,58.0,-100.00,SSE,155,6.0,9.0,70,0.00,,,-99.99,,2013-08-05 05:12:00,
2013-08-05 00:53:00,67.0,58.0,-100.00,SE,135,4.0,9.0,73,0.00,,,-99.99,,2013-08-05 05:53:00,
2013-08-05 01:02:00,67.0,58.0,-100.00,SSE,155,4.0,9.0,74,0.00,,,-99.99,,2013-08-05 06:02:00,
2013-08-05 01:12:00,67.0,58.0,-100.00,SSE,155,4.0,9.0,74,0.00,,,-99.99,,2013-08-05 06:12:00,
2013-08-05 01:32:00,66.0,59.0,-100.00,SW,230,2.0,7.0,78,0.00,,,-99.99,,2013-08-05 06:32:00,
2013-08-05 01:52:00,67.0,60.0,-100.00,SSW,200,2.0,7.0,79,0.00,,,-99.99,,2013-08-05 06:52:00,
2013-08-05 02:02:00,67.0,61.0,-100.00,SSW,210,2.0,6.0,80,0.00,,,-99.99,,2013-08-05 07:02:00,
2013-08-05 02:12:00,67.0,61.0,-100.00,SSW,210,2.0,6.0,80,0.00,,,-99.99,,2013-08-05 07:12:00,
2013-08-05 02:53:00,67.0,62.0,-100.00,South,190,2.0,5.0,84,0.00,,,-99.99,,2013-08-05 07:53:00,
2013-08-05 03:02:00,67.0,63.0,-100.00,SW,220,1.0,4.0,85,0.00,,,-99.99,,2013-08-05 08:02:00,
2013-08-05 03:12:00,67.0,63.0,-100.00,SW,220,1.0,4.0,85,0.00,,,-99.99,,2013-08-05 08:12:00,
2013-08-05 03:54:00,65.0,63.0,-100.00,South,180,2.0,4.0,92,0.00,,,-99.99,,2013-08-05 08:54:00,
2013-08-05 04:06:00,65.0,63.0,-100.00,SSE,160,1.0,4.0,93,0.00,,,-99.99,,2013-08-05 09:06:00,
2013-08-05 04:16:00,65.0,63.0,-100.00,SSE,160,1.0,4.0,93,0.00,,,-99.99,,2013-08-05 09:16:00,
2013-08-05 04:53:00,63.0,62.0,-100.00,South,190,1.0,4.0,96,0.00,,,-99.99,,2013-08-05 09:53:00,
2013-08-05 05:07:00,63.0,62.0,-100.00,South,185,1.0,4.0,96,0.00,,,-99.99,,2013-08-05 10:07:00,
2013-08-05 05:14:00,63.0,62.0,-100.00,South,185,1.0,4.0,96,0.00,,,-99.99,,2013-08-05 10:14:00,
2013-08-05 05:53:00,62.0,62.0,-100.00,South,185,2.0,7.0,97,0.00,,,-99.99,,2013-08-05 10:53:00,
2013-08-05 06:06:00,62.0,61.0,-100.00,SE,145,2.0,5.0,97,0.00,,,-99.99,,2013-08-05 11:06:00,
2013-08-05 06:14:00,62.0,61.0,-100.00,SE,145,2.0,5.0,97,0.00,,,-99.99,,2013-08-05 11:14:00,
2013-08-05 06:34:00,62.0,62.0,-100.00,WSW,245,2.0,4.0,98,0.00,,,-99.99,,2013-08-05 11:34:00,
2013-08-05 06:58:00,62.0,62.0,-100.00,West,265,1.0,4.0,98,0.00,,,-99.99,,2013-08-05 11:58:00,
2013-08-05 07:06:00,62.0,62.0,-100.00,NW,315,4.0,7.0,98,0.00,,,-99.99,,2013-08-05 12:06:00,
2013-08-05 08:00:00,63.0,63.0,-100.00,NW,325,6.0,9.0,98,0.00,,,-99.99,,2013-08-05 13:00:00,
2013-08-05 08:13:00,63.0,63.0,-100.00,NW,325,5.0,9.0,98,0.00,,,-99.99,,2013-08-05 13:13:00,
2013-08-05 08:35:00,61.0,60.0,-100.00,NNW,335,4.0,9.0,98,0.00,,,-99.99,,2013-08-05 13:35:00,
2013-08-05 08:54:00,61.0,60.0,-100.00,NNW,335,6.0,9.0,98,0.00,,,-99.99,,2013-08-05 13:54:00,
2013-08-05 09:06:00,60.0,60.0,-100.00,NNW,340,4.0,8.0,98,0.00,,,-99.99,,2013-08-05 14:06:00,
2013-08-05 09:15:00,60.0,60.0,-100.00,NNW,340,4.0,8.0,98,0.00,,,-99.99,,2013-08-05 14:15:00,
2013-08-05 09:35:00,61.0,61.0,-100.00,NW,320,4.0,9.0,98,0.00,,,-99.99,,2013-08-05 14:35:00,
2013-08-05 09:54:00,62.0,61.0,-100.00,NNW,330,6.0,9.0,98,0.00,,,-99.99,,2013-08-05 14:54:00,
2013-08-05 10:06:00,62.0,61.0,-100.00,NW,325,4.0,9.0,98,0.00,,,-99.99,,2013-08-05 15:06:00,
2013-08-05 10:13:00,62.0,61.0,-100.00,NW,325,4.0,9.0,98,0.00,,,-99.99,,2013-08-05 15:13:00,
2013-08-05 10:34:00,62.0,62.0,-100.00,NW,320,3.0,7.0,98,0.00,,,-99.99,,2013-08-05 15:34:00,
2013-08-05 10:58:00,62.0,61.0,-100.00,NW,325,4.0,9.0,96,0.00,,,-99.99,,2013-08-05 15:58:00,
2013-08-05 11:14:00,62.0,61.0,-100.00,NW,325,4.0,9.0,94,0.00,,,-99.99,,2013-08-05 16:14:00,
2013-08-05 11:33:00,63.0,60.0,-100.00,NW,325,6.0,9.0,89,0.00,,,-99.99,,2013-08-05 16:33:00,
2013-08-05 12:00:00,64.0,61.0,-100.00,NW,325,6.0,9.0,87,0.00,,,-99.99,,2013-08-05 17:00:00,
2013-08-05 12:05:00,64.0,60.0,-100.00,NW,325,4.0,9.0,87,0.00,,,-99.99,,2013-08-05 17:05:00,
2013-08-05 12:59:00,65.0,60.0,-100.00,NNW,340,6.0,9.0,83,0.00,,,-99.99,,2013-08-05 17:59:00,
2013-08-05 13:07:00,65.0,59.0,-100.00,NW,320,4.0,9.0,82,0.00,,,-99.99,,2013-08-05 18:07:00,
2013-08-05 13:13:00,65.0,59.0,-100.00,NW,320,4.0,9.0,82,0.00,,,-99.99,,2013-08-05 18:13:00,
2013-08-05 13:34:00,65.0,59.0,-100.00,NNW,335,4.0,9.0,81,0.00,,,-99.99,,2013-08-05 18:34:00,
2013-08-05 13:54:00,65.0,59.0,-100.00,NW,320,6.0,9.0,79,0.00,,,-99.99,,2013-08-05 18:54:00,
2013-08-05 14:05:00,66.0,59.0,-100.00,NW,315,4.0,9.0,79,0.00,,,-99.99,,2013-08-05 19:05:00,
2013-08-05 14:14:00,66.0,59.0,-100.00,NW,315,4.0,9.0,79,0.00,,,-99.99,,2013-08-05 19:14:00,
2013-08-05 14:34:00,66.0,59.0,-100.00,NNW,345,4.0,9.0,79,0.00,,,-99.99,,2013-08-05 19:34:00,
2013-08-05 14:56:00,66.0,59.0,-100.00,NW,320,6.0,9.0,79,0.00,,,-99.99,,2013-08-05 19:56:00,
2013-08-05 15:15:00,66.0,59.0,-100.00,NNW,335,4.0,9.0,78,0.00,,,-99.99,,2013-08-05 20:15:00,
2013-08-05 15:34:00,66.0,59.0,-100.00,NW,320,4.0,9.0,77,0.00,,,-99.99,,2013-08-05 20:34:00,
2013-08-05 16:00:00,67.0,59.0,-100.00,NW,310,6.0,9.0,76,0.00,,,-99.99,,2013-08-05 21:00:00,
2013-08-05 16:05:00,67.0,59.0,-100.00,WNW,290,4.0,9.0,76,0.00,,,-99.99,,2013-08-05 21:05:00,
2013-08-05 16:15:00,67.0,59.0,-100.00,WNW,290,4.0,9.0,76,0.00,,,-99.99,,2013-08-05 21:15:00,
2013-08-05 16:33:00,68.0,59.0,-100.00,NW,315,4.0,9.0,73,0.00,,,-99.99,,2013-08-05 21:33:00,
2013-08-05 16:53:00,68.0,59.0,-100.00,WNW,290,2.0,9.0,72,0.00,,,-99.99,,2013-08-05 21:53:00,
2013-08-05 17:35:00,71.0,59.0,-100.00,NW,315,2.0,6.0,66,0.00,,,-99.99,,2013-08-05 22:35:00,
2013-08-05 17:53:00,72.0,59.0,-100.00,NNW,345,1.0,5.0,64,0.00,,,-99.99,,2013-08-05 22:53:00,
2013-08-05 18:33:00,71.0,57.0,-100.00,NW,315,3.0,7.0,62,0.00,,,-99.99,,2013-08-05 23:33:00,
2013-08-05 19:01:00,72.0,57.0,-100.00,NW,325,6.0,9.0,59,0.00,,,-99.99,,2013-08-06 00:01:00,
2013-08-05 19:34:00,71.0,57.0,-100.00,NNW,335,1.0,7.0,60,0.00,,,-99.99,,2013-08-06 00:34:00,
2013-08-05 19:45:00,71.0,57.0,-100.00,NNW,335,1.0,7.0,60,0.00,,,-99.99,,2013-08-06 00:45:00,
2013-08-05 19:57:00,71.0,57.0,-100.00,WNW,300,4.0,5.0,61,0.00,,,-99.99,,2013-08-06 00:57:00,
2013-08-05 20:36:00,69.0,57.0,-100.00,SW,220,1.0,2.0,65,0.00,,,-99.99,,2013-08-06 01:36:00,
2013-08-05 21:00:00,68.0,58.0,-100.00,WNW,295,0.0,1.0,70,0.00,,,-99.99,,2013-08-06 02:00:00,
2013-08-05 21:32:00,65.0,59.0,-100.00,SE,145,1.0,1.0,81,0.00,,,-99.99,,2013-08-06 02:32:00,
2013-08-05 21:52:00,63.0,59.0,-100.00,SE,145,0.0,1.0,87,0.00,,,-99.99,,2013-08-06 02:52:00,
2013-08-05 22:35:00,62.0,60.0,-100.00,SSE,160,2.0,3.0,93,0.00,,,-99.99,,2013-08-06 03:35:00,
2013-08-05 22:52:00,62.0,60.0,-100.00,SSE,150,1.0,2.0,94,0.00,,,-99.99,,2013-08-06 03:52:00,
2013-08-05 23:33:00,58.0,57.0,-100.00,SE,135,1.0,3.0,95,0.00,,,-99.99,,2013-08-06 04:33:00,
2013-08-05 23:53:00,61.0,60.0,-100.00,SE,125,2.0,4.0,96,0.00,,,-99.99,,2013-08-06 04:53:00,